CW2935 Weather Reports


time (UTC)temp
C
wind
direction
speed
KPH
gust
KPH
rain 1hr
cm
rain 24hr
cm
rain mn
cm
humidity
%
barometer
mb
20240518190034 27 228 3.2 17.7 0.00 0.48 0.05 46 1003.7
20240518184538 27 302 9.7 27.4 0.00 0.48 0.05 45 1003.6
20240518183018 27 281 6.4 19.3 0.00 0.48 0.05 45 1003.3
20240518181525 28 337 3.2 12.9 0.00 0.48 0.05 46 1003.0
20240518180017 27 289 3.2 17.7 0.00 0.48 0.05 49 1002.9
20240518174513 27 246 1.6 12.9 0.00 0.48 0.05 51 1002.7
20240518173010 26 287 3.2 19.3 0.00 0.48 0.05 51 1002.6
20240518171505 26 266 3.2 14.5 0.00 0.48 0.05 53 1002.4
20240518170003 26 277 3.2 14.5 0.00 0.48 0.05 56 1002.3
20240518164501 26 298 3.2 11.3 0.00 0.48 0.05 55 1002.3
20240518163118 26 323 1.6 14.5 0.00 0.48 0.05 57 1002.1
20240518161558 26 243 1.6 14.5 0.00 0.48 0.05 56 1001.9
20240518160115 25 283 0.0 14.5 0.00 0.48 0.05 59 1001.7
20240518154556 26 304 3.2 14.5 0.00 0.48 0.05 56 1001.5
20240518153056 25 295 1.6 6.4 0.00 0.48 0.05 60 1001.4
20240518151551 25 304 1.6 9.7 0.00 0.48 0.05 60 1001.3
20240518150045 24 207 1.6 12.9 0.00 0.48 0.05 62 1001.2
20240518144541 23 165 1.6 6.4 0.00 0.48 0.05 66 1001.3
20240518143041 22 1 3.2 11.3 0.00 0.48 0.05 67 1001.2
20240518141536 22 356 3.2 14.5 0.00 0.48 0.05 69 1001.1
20240518140044 21 338 1.6 14.5 0.00 0.48 0.05 72 1001.2
20240518134555 21 150 4.8 16.1 0.00 0.48 0.05 71 1001.1
20240518133037 21 162 1.6 8.0 0.00 0.48 0.05 75 1001.1
20240518131535 20 264 1.6 9.7 0.00 0.48 0.05 75 1001.1
20240518130025 -17 0.0 0.0 0.00 0.48 0.05 1001.3
20240518124517 -17 0.0 0.0 0.00 0.48 0.05 1001.4
20240518123013 -17 0.0 0.0 0.00 0.48 0.05 1001.2
20240518121526 -17 0.0 0.0 0.00 0.48 0.05 1001.1
20240518120007 -17 0.0 0.0 0.00 0.48 0.05 1001.0
20240518114600 -17 0.0 0.0 0.00 0.48 0.05 1000.8
20240518113116 -17 0.0 0.0 0.00 0.48 0.05 1000.7
20240518111552 -17 0.0 0.0 0.00 0.48 0.05 1000.5
20240518110047 -17 0.0 0.0 0.00 0.48 0.05 1000.5
20240518104546 18 74 0.0 8.0 0.00 0.48 0.05 77 1000.3
20240518103043 18 96 1.6 12.9 0.00 0.48 0.05 76 1000.4
20240518101542 18 84 1.6 9.7 0.00 0.48 0.05 75 1000.4
20240518100046 18 153 3.2 11.3 0.00 0.48 0.05 72 1000.0
20240518094540 19 70 3.2 12.9 0.00 0.48 0.05 72 1000.5
20240518093041 19 161 3.2 9.7 0.00 0.48 0.05 71 1000.2
20240518091541 19 129 1.6 11.3 0.00 0.48 0.05 70 1000.2
20240518090048 20 158 3.2 14.5 0.00 0.48 0.05 68 1000.2
20240518084538 20 207 3.2 12.9 0.00 0.48 0.05 67 1000.2
20240518083037 20 197 4.8 22.5 0.00 0.48 0.05 67 1000.1
20240518081535 20 63 1.6 12.9 0.00 0.48 0.05 67 1000.1
20240518080032 19 253 3.2 16.1 0.05 0.48 0.05 70 1000.2
20240518074530 17 86 3.2 12.9 0.05 0.48 0.05 84 1000.2
20240518073029 17 218 1.6 8.0 0.05 0.48 0.05 85 1000.3
20240518071526 18 8 0.0 8.0 0.05 0.48 0.05 80 1000.3
20240518070024 18 152 0.0 8.0 0.00 0.43 0.00 74 1000.2
20240518064523 18 181 3.2 14.5 0.00 0.43 0.00 75 1000.3
20240518063022 18 128 1.6 9.7 0.00 0.43 0.00 76 1000.4
20240518061519 18 202 1.6 19.3 0.00 0.43 0.00 76 1000.3
20240518060021 18 73 1.6 14.5 0.00 0.43 0.00 75 1000.3
20240518054515 18 148 1.6 12.9 0.00 0.43 0.00 74 1000.5
20240518053021 18 174 0.0 11.3 0.00 0.43 0.00 76 1000.6
20240518051512 18 152 3.2 17.7 0.00 0.43 0.00 75 1000.6
20240518050010 18 219 4.8 17.7 0.00 0.43 0.00 74 1000.7
20240518044508 18 165 1.6 16.1 0.00 0.43 0.43 77 1000.7
20240518043007 18 76 3.2 11.3 0.00 0.43 0.43 78 1000.7
20240518041519 18 104 1.6 11.3 0.00 0.43 0.43 77 1000.8
20240518040006 18 103 4.8 12.9 0.00 0.43 0.43 76 1000.7
20240518034505 18 169 1.6 19.3 0.00 0.43 0.43 78 1000.8
20240518033009 18 162 1.6 16.1 0.00 0.43 0.43 79 1000.9
20240518031504 18 172 1.6 14.5 0.00 0.43 0.43 79 1000.9
20240518030003 18 114 3.2 11.3 0.00 0.43 0.43 78 1000.8
20240518024501 18 236 4.8 20.9 0.00 0.43 0.43 78 1000.8
20240518023005 18 187 4.8 22.5 0.00 0.43 0.43 77 1000.8
20240518021502 18 142 3.2 20.9 0.00 0.43 0.43 78 1000.9
20240518020002 19 164 6.4 22.5 0.03 0.43 0.43 76 1001.1
20240518014559 19 269 6.4 19.3 0.03 0.43 0.43 77 1000.7
20240518013108 18 222 8.0 22.5 0.03 0.43 0.43 79 1000.7
20240518011603 18 144 1.6 17.7 0.03 0.43 0.43 81 1000.4
20240518010100 18 120 3.2 24.1 0.00 0.41 0.41 79 1001.7
20240518004603 18 267 0.0 16.1 0.03 0.41 0.41 82 1001.5
20240518003107 18 172 1.6 16.1 0.25 0.41 0.41 84 1000.9
20240518001606 17 127 3.2 9.7 0.33 0.41 0.41 85 1000.3
20240518000102 18 205 3.2 11.3 0.41 0.41 0.41 85 1001.2
20240517234622 17 104 3.2 11.3 0.38 0.38 0.38 83 1000.6
20240517233053 19 58 0.0 14.5 0.15 0.15 0.15 77 1002.0
20240517231553 20 294 0.0 12.9 0.08 0.08 0.08 73 1000.7
20240517230051 23 311 12.9 33.8 0.00 0.00 0.00 56 1000.6
20240517224551 27 143 3.2 16.1 0.00 0.00 0.00 39 999.8
20240517223051 28 239 1.6 12.9 0.00 0.00 0.00 38 999.1
20240517221549 29 255 4.8 16.1 0.00 0.00 0.00 36 999.3
20240517220049 29 187 6.4 14.5 0.00 0.00 0.00 36 999.4
20240517214545 29 255 4.8 11.3 0.00 0.00 0.00 41 999.7
20240517213042 28 215 3.2 14.5 0.00 0.00 0.00 41 999.8
20240517211540 29 259 6.4 17.7 0.00 0.00 0.00 38 1000.1
20240517210039 30 207 3.2 11.3 0.00 0.00 0.00 37 999.9
20240517204538 29 155 6.4 19.3 0.00 0.00 0.00 38 1000.0
20240517203036 30 147 4.8 14.5 0.00 0.00 0.00 37 1000.1
20240517201542 30 275 1.6 14.5 0.00 0.00 0.00 38 1000.4
20240517200034 30 195 6.4 22.5 0.00 0.00 0.00 39 1000.6
20240517194532 30 271 3.2 19.3 0.00 0.00 0.00 38 1000.7
20240517193030 30 197 3.2 12.9 0.00 0.00 0.00 38 1000.9
20240517191528 29 245 0.0 17.7 0.00 0.00 0.00 42 1000.9